sensor_id;sensor_type;location;lat;lon;timestamp;P1;durP1;ratioP1;P2;durP2;ratioP2
291;SDS011;23311;48.776;9.162;2023-04-10T00:00:44;9.40;;;8.30;;
291;SDS011;23311;48.776;9.162;2023-04-10T00:03:14;10.53;;;8.03;;
291;SDS011;23311;48.776;9.162;2023-04-10T00:05:43;9.53;;;8.03;;
291;SDS011;23311;48.776;9.162;2023-04-10T00:08:11;10.17;;;8.23;;
291;SDS011;23311;48.776;9.162;2023-04-10T00:10:40;9.73;;;8.10;;
291;SDS011;23311;48.776;9.162;2023-04-10T00:13:08;10.20;;;7.93;;
291;SDS011;23311;48.776;9.162;2023-04-10T00:15:36;10.50;;;8.03;;
291;SDS011;23311;48.776;9.162;2023-04-10T00:18:04;9.83;;;8.00;;
291;SDS011;23311;48.776;9.162;2023-04-10T00:20:33;9.70;;;8.20;;
291;SDS011;23311;48.776;9.162;2023-04-10T00:23:01;11.90;;;8.50;;
291;SDS011;23311;48.776;9.162;2023-04-10T00:25:29;8.80;;;7.53;;
291;SDS011;23311;48.776;9.162;2023-04-10T00:27:57;11.30;;;8.83;;
291;SDS011;23311;48.776;9.162;2023-04-10T00:30:25;10.70;;;8.57;;
291;SDS011;23311;48.776;9.162;2023-04-10T00:32:53;12.83;;;8.70;;
291;SDS011;23311;48.776;9.162;2023-04-10T00:35:21;13.57;;;9.20;;
291;SDS011;23311;48.776;9.162;2023-04-10T00:37:51;11.07;;;8.80;;
291;SDS011;23311;48.776;9.162;2023-04-10T00:40:20;14.20;;;9.40;;
291;SDS011;23311;48.776;9.162;2023-04-10T00:42:48;11.90;;;10.43;;
291;SDS011;23311;48.776;9.162;2023-04-10T00:45:16;10.90;;;9.30;;
291;SDS011;23311;48.776;9.162;2023-04-10T00:47:44;11.90;;;9.43;;
291;SDS011;23311;48.776;9.162;2023-04-10T00:50:12;11.70;;;9.40;;
291;SDS011;23311;48.776;9.162;2023-04-10T00:52:41;10.73;;;9.47;;
291;SDS011;23311;48.776;9.162;2023-04-10T00:55:10;12.80;;;9.27;;
291;SDS011;23311;48.776;9.162;2023-04-10T00:57:38;12.40;;;9.00;;
291;SDS011;23311;48.776;9.162;2023-04-10T01:00:10;14.23;;;9.43;;
291;SDS011;23311;48.776;9.162;2023-04-10T01:02:39;13.00;;;10.33;;
291;SDS011;23311;48.776;9.162;2023-04-10T01:05:07;13.63;;;9.70;;
291;SDS011;23311;48.776;9.162;2023-04-10T01:07:41;12.37;;;9.73;;
291;SDS011;23311;48.776;9.162;2023-04-10T01:10:19;11.60;;;9.30;;
291;SDS011;23311;48.776;9.162;2023-04-10T01:12:54;11.87;;;9.00;;
291;SDS011;23311;48.776;9.162;2023-04-10T01:15:35;14.70;;;11.40;;
291;SDS011;23311;48.776;9.162;2023-04-10T01:18:11;12.17;;;9.60;;
291;SDS011;23311;48.776;9.162;2023-04-10T01:20:45;11.80;;;9.63;;
291;SDS011;23311;48.776;9.162;2023-04-10T01:26:55;13.53;;;10.77;;
291;SDS011;23311;48.776;9.162;2023-04-10T01:29:35;16.43;;;11.50;;
291;SDS011;23311;48.776;9.162;2023-04-10T01:32:10;15.50;;;11.30;;
291;SDS011;23311;48.776;9.162;2023-04-10T01:34:42;14.53;;;12.10;;
291;SDS011;23311;48.776;9.162;2023-04-10T01:37:15;13.90;;;11.30;;
291;SDS011;23311;48.776;9.162;2023-04-10T01:39:48;11.83;;;10.73;;
291;SDS011;23311;48.776;9.162;2023-04-10T01:42:18;12.87;;;10.40;;
291;SDS011;23311;48.776;9.162;2023-04-10T01:44:50;15.10;;;11.50;;
291;SDS011;23311;48.776;9.162;2023-04-10T01:47:20;14.33;;;11.60;;
291;SDS011;23311;48.776;9.162;2023-04-10T01:49:49;13.23;;;10.27;;
291;SDS011;23311;48.776;9.162;2023-04-10T01:52:19;13.17;;;11.00;;
291;SDS011;23311;48.776;9.162;2023-04-10T01:54:48;14.00;;;10.50;;
291;SDS011;23311;48.776;9.162;2023-04-10T01:57:17;12.20;;;10.23;;
291;SDS011;23311;48.776;9.162;2023-04-10T01:59:46;14.47;;;11.17;;
291;SDS011;23311;48.776;9.162;2023-04-10T02:02:15;11.93;;;10.53;;
291;SDS011;23311;48.776;9.162;2023-04-10T02:04:43;14.73;;;11.37;;
291;SDS011;23311;48.776;9.162;2023-04-10T02:07:18;12.60;;;9.63;;
291;SDS011;23311;48.776;9.162;2023-04-10T02:09:53;17.33;;;12.30;;
291;SDS011;23311;48.776;9.162;2023-04-10T02:12:25;15.40;;;10.93;;
291;SDS011;23311;48.776;9.162;2023-04-10T02:14:56;13.40;;;10.73;;
291;SDS011;23311;48.776;9.162;2023-04-10T02:17:28;12.30;;;10.47;;
291;SDS011;23311;48.776;9.162;2023-04-10T02:19:58;15.37;;;11.03;;
291;SDS011;23311;48.776;9.162;2023-04-10T02:22:26;15.20;;;11.50;;
291;SDS011;23311;48.776;9.162;2023-04-10T02:24:55;15.03;;;11.00;;
291;SDS011;23311;48.776;9.162;2023-04-10T02:27:27;12.03;;;9.87;;
291;SDS011;23311;48.776;9.162;2023-04-10T02:29:57;12.90;;;11.03;;
291;SDS011;23311;48.776;9.162;2023-04-10T02:32:26;13.87;;;10.43;;
291;SDS011;23311;48.776;9.162;2023-04-10T02:34:55;15.40;;;12.53;;
291;SDS011;23311;48.776;9.162;2023-04-10T02:37:23;13.03;;;9.80;;
291;SDS011;23311;48.776;9.162;2023-04-10T02:39:52;11.97;;;10.17;;
291;SDS011;23311;48.776;9.162;2023-04-10T02:42:21;16.00;;;11.77;;
291;SDS011;23311;48.776;9.162;2023-04-10T02:44:49;13.93;;;12.33;;
291;SDS011;23311;48.776;9.162;2023-04-10T02:47:17;15.07;;;10.50;;
291;SDS011;23311;48.776;9.162;2023-04-10T02:49:45;12.93;;;11.00;;
291;SDS011;23311;48.776;9.162;2023-04-10T02:52:15;15.77;;;12.37;;
291;SDS011;23311;48.776;9.162;2023-04-10T02:54:43;11.87;;;10.60;;
291;SDS011;23311;48.776;9.162;2023-04-10T02:57:11;13.57;;;10.70;;
291;SDS011;23311;48.776;9.162;2023-04-10T02:59:39;14.60;;;10.57;;
291;SDS011;23311;48.776;9.162;2023-04-10T03:02:07;13.23;;;10.63;;
291;SDS011;23311;48.776;9.162;2023-04-10T03:04:35;12.83;;;11.07;;
291;SDS011;23311;48.776;9.162;2023-04-10T03:07:03;12.30;;;11.03;;
291;SDS011;23311;48.776;9.162;2023-04-10T03:09:33;15.27;;;11.50;;
291;SDS011;23311;48.776;9.162;2023-04-10T03:12:02;11.53;;;9.47;;
291;SDS011;23311;48.776;9.162;2023-04-10T03:14:30;13.23;;;10.90;;
291;SDS011;23311;48.776;9.162;2023-04-10T03:16:58;13.10;;;10.90;;
291;SDS011;23311;48.776;9.162;2023-04-10T03:19:26;14.40;;;10.37;;
291;SDS011;23311;48.776;9.162;2023-04-10T03:21:54;15.30;;;11.53;;
291;SDS011;23311;48.776;9.162;2023-04-10T03:24:22;14.53;;;11.87;;
291;SDS011;23311;48.776;9.162;2023-04-10T03:26:51;13.17;;;11.13;;
291;SDS011;23311;48.776;9.162;2023-04-10T03:29:19;15.60;;;12.03;;
291;SDS011;23311;48.776;9.162;2023-04-10T03:31:47;13.80;;;10.97;;
291;SDS011;23311;48.776;9.162;2023-04-10T03:34:16;15.33;;;12.10;;
291;SDS011;23311;48.776;9.162;2023-04-10T03:36:44;16.30;;;12.20;;
291;SDS011;23311;48.776;9.162;2023-04-10T03:39:12;14.17;;;11.17;;
291;SDS011;23311;48.776;9.162;2023-04-10T03:41:40;15.20;;;11.63;;
291;SDS011;23311;48.776;9.162;2023-04-10T03:44:09;14.10;;;11.17;;
291;SDS011;23311;48.776;9.162;2023-04-10T03:46:37;11.70;;;10.73;;
291;SDS011;23311;48.776;9.162;2023-04-10T03:49:05;13.40;;;10.83;;
291;SDS011;23311;48.776;9.162;2023-04-10T03:51:33;11.77;;;10.63;;
291;SDS011;23311;48.776;9.162;2023-04-10T03:54:01;14.33;;;11.00;;
291;SDS011;23311;48.776;9.162;2023-04-10T03:56:30;16.60;;;12.03;;
291;SDS011;23311;48.776;9.162;2023-04-10T03:58:57;14.10;;;11.67;;
291;SDS011;23311;48.776;9.162;2023-04-10T04:01:27;14.17;;;11.37;;
291;SDS011;23311;48.776;9.162;2023-04-10T04:03:55;13.50;;;11.50;;
291;SDS011;23311;48.776;9.162;2023-04-10T04:06:24;13.97;;;11.20;;
291;SDS011;23311;48.776;9.162;2023-04-10T04:08:53;14.70;;;12.20;;
291;SDS011;23311;48.776;9.162;2023-04-10T04:11:21;15.67;;;11.80;;
291;SDS011;23311;48.776;9.162;2023-04-10T04:13:49;15.37;;;11.73;;
291;SDS011;23311;48.776;9.162;2023-04-10T04:16:17;12.13;;;9.97;;
291;SDS011;23311;48.776;9.162;2023-04-10T04:18:47;14.57;;;10.83;;
291;SDS011;23311;48.776;9.162;2023-04-10T04:21:15;12.77;;;11.47;;
291;SDS011;23311;48.776;9.162;2023-04-10T04:23:43;13.13;;;11.27;;
291;SDS011;23311;48.776;9.162;2023-04-10T04:26:11;15.57;;;11.17;;
291;SDS011;23311;48.776;9.162;2023-04-10T04:28:39;14.50;;;11.40;;
291;SDS011;23311;48.776;9.162;2023-04-10T04:31:07;13.90;;;11.10;;
291;SDS011;23311;48.776;9.162;2023-04-10T04:33:35;15.53;;;11.57;;
291;SDS011;23311;48.776;9.162;2023-04-10T04:36:04;14.37;;;10.40;;
291;SDS011;23311;48.776;9.162;2023-04-10T04:38:33;16.67;;;13.27;;
291;SDS011;23311;48.776;9.162;2023-04-10T04:41:01;13.97;;;10.90;;
291;SDS011;23311;48.776;9.162;2023-04-10T04:43:29;15.00;;;11.67;;
291;SDS011;23311;48.776;9.162;2023-04-10T04:45:57;15.10;;;11.77;;
291;SDS011;23311;48.776;9.162;2023-04-10T04:48:25;13.87;;;11.90;;
291;SDS011;23311;48.776;9.162;2023-04-10T04:50:53;13.07;;;10.37;;
291;SDS011;23311;48.776;9.162;2023-04-10T04:53:23;13.50;;;11.10;;
291;SDS011;23311;48.776;9.162;2023-04-10T04:55:51;12.53;;;10.63;;
291;SDS011;23311;48.776;9.162;2023-04-10T04:58:19;13.33;;;10.67;;
291;SDS011;23311;48.776;9.162;2023-04-10T05:00:50;14.13;;;11.47;;
291;SDS011;23311;48.776;9.162;2023-04-10T05:03:18;13.10;;;10.80;;
291;SDS011;23311;48.776;9.162;2023-04-10T05:05:46;13.17;;;11.60;;
291;SDS011;23311;48.776;9.162;2023-04-10T05:08:14;15.37;;;12.80;;
291;SDS011;23311;48.776;9.162;2023-04-10T05:10:44;12.80;;;11.20;;
291;SDS011;23311;48.776;9.162;2023-04-10T05:13:12;12.77;;;10.63;;
291;SDS011;23311;48.776;9.162;2023-04-10T05:15:41;12.33;;;9.83;;
291;SDS011;23311;48.776;9.162;2023-04-10T05:18:11;13.17;;;11.40;;
291;SDS011;23311;48.776;9.162;2023-04-10T05:20:40;12.27;;;10.90;;
291;SDS011;23311;48.776;9.162;2023-04-10T05:23:08;14.17;;;10.87;;
291;SDS011;23311;48.776;9.162;2023-04-10T05:25:36;12.40;;;10.43;;
291;SDS011;23311;48.776;9.162;2023-04-10T05:28:05;13.87;;;11.33;;
291;SDS011;23311;48.776;9.162;2023-04-10T05:30:33;13.13;;;10.07;;
291;SDS011;23311;48.776;9.162;2023-04-10T05:33:01;12.47;;;9.47;;
291;SDS011;23311;48.776;9.162;2023-04-10T05:35:29;15.40;;;10.50;;
291;SDS011;23311;48.776;9.162;2023-04-10T05:37:57;10.60;;;9.23;;
291;SDS011;23311;48.776;9.162;2023-04-10T05:40:26;12.30;;;9.73;;
291;SDS011;23311;48.776;9.162;2023-04-10T05:42:55;11.93;;;10.20;;
291;SDS011;23311;48.776;9.162;2023-04-10T05:45:25;12.53;;;10.00;;
291;SDS011;23311;48.776;9.162;2023-04-10T05:47:54;11.50;;;8.80;;
291;SDS011;23311;48.776;9.162;2023-04-10T05:50:22;11.27;;;9.53;;
291;SDS011;23311;48.776;9.162;2023-04-10T05:52:50;11.90;;;9.63;;
291;SDS011;23311;48.776;9.162;2023-04-10T05:55:18;11.93;;;10.17;;
291;SDS011;23311;48.776;9.162;2023-04-10T05:57:46;12.63;;;9.50;;
291;SDS011;23311;48.776;9.162;2023-04-10T06:00:16;13.50;;;10.17;;
291;SDS011;23311;48.776;9.162;2023-04-10T06:02:46;14.70;;;10.27;;
291;SDS011;23311;48.776;9.162;2023-04-10T06:05:15;14.33;;;10.27;;
291;SDS011;23311;48.776;9.162;2023-04-10T06:07:43;13.93;;;10.97;;
291;SDS011;23311;48.776;9.162;2023-04-10T06:10:11;11.03;;;9.03;;
291;SDS011;23311;48.776;9.162;2023-04-10T06:12:39;12.47;;;9.80;;
291;SDS011;23311;48.776;9.162;2023-04-10T06:15:07;15.23;;;10.33;;
291;SDS011;23311;48.776;9.162;2023-04-10T06:17:40;12.43;;;9.70;;
291;SDS011;23311;48.776;9.162;2023-04-10T06:20:10;12.23;;;9.73;;
291;SDS011;23311;48.776;9.162;2023-04-10T06:22:39;12.20;;;10.30;;
291;SDS011;23311;48.776;9.162;2023-04-10T06:25:07;12.77;;;9.13;;
291;SDS011;23311;48.776;9.162;2023-04-10T06:27:36;11.80;;;9.07;;
291;SDS011;23311;48.776;9.162;2023-04-10T06:30:04;12.33;;;10.10;;
291;SDS011;23311;48.776;9.162;2023-04-10T06:32:33;12.20;;;10.77;;
291;SDS011;23311;48.776;9.162;2023-04-10T06:35:01;12.00;;;9.70;;
291;SDS011;23311;48.776;9.162;2023-04-10T06:37:31;11.80;;;9.00;;
291;SDS011;23311;48.776;9.162;2023-04-10T06:40:03;12.10;;;9.10;;
291;SDS011;23311;48.776;9.162;2023-04-10T06:42:32;11.10;;;9.93;;
291;SDS011;23311;48.776;9.162;2023-04-10T06:45:00;11.80;;;9.40;;
291;SDS011;23311;48.776;9.162;2023-04-10T06:47:29;12.53;;;8.77;;
291;SDS011;23311;48.776;9.162;2023-04-10T06:49:57;12.30;;;9.20;;
291;SDS011;23311;48.776;9.162;2023-04-10T06:52:25;10.23;;;8.37;;
291;SDS011;23311;48.776;9.162;2023-04-10T06:54:55;7.70;;;6.70;;
291;SDS011;23311;48.776;9.162;2023-04-10T06:57:23;9.83;;;7.63;;
291;SDS011;23311;48.776;9.162;2023-04-10T06:59:51;9.00;;;7.53;;
291;SDS011;23311;48.776;9.162;2023-04-10T07:02:19;8.40;;;6.93;;
291;SDS011;23311;48.776;9.162;2023-04-10T07:04:48;7.93;;;6.80;;
291;SDS011;23311;48.776;9.162;2023-04-10T07:07:17;9.10;;;6.80;;
291;SDS011;23311;48.776;9.162;2023-04-10T07:09:45;7.40;;;6.40;;
291;SDS011;23311;48.776;9.162;2023-04-10T07:12:14;6.83;;;6.47;;
291;SDS011;23311;48.776;9.162;2023-04-10T07:14:42;9.10;;;7.43;;
291;SDS011;23311;48.776;9.162;2023-04-10T07:17:10;7.57;;;6.57;;
291;SDS011;23311;48.776;9.162;2023-04-10T07:19:38;7.20;;;6.00;;
291;SDS011;23311;48.776;9.162;2023-04-10T07:22:06;6.20;;;5.90;;
291;SDS011;23311;48.776;9.162;2023-04-10T07:24:34;7.80;;;6.60;;
291;SDS011;23311;48.776;9.162;2023-04-10T07:27:02;7.43;;;6.37;;
291;SDS011;23311;48.776;9.162;2023-04-10T07:29:32;6.10;;;5.80;;
291;SDS011;23311;48.776;9.162;2023-04-10T07:32:00;6.50;;;6.10;;
291;SDS011;23311;48.776;9.162;2023-04-10T07:34:29;6.70;;;6.30;;
291;SDS011;23311;48.776;9.162;2023-04-10T07:37:00;6.53;;;6.17;;
291;SDS011;23311;48.776;9.162;2023-04-10T07:39:28;6.60;;;6.20;;
291;SDS011;23311;48.776;9.162;2023-04-10T07:41:56;6.83;;;6.43;;
291;SDS011;23311;48.776;9.162;2023-04-10T07:44:24;6.77;;;6.30;;
291;SDS011;23311;48.776;9.162;2023-04-10T07:46:55;6.87;;;6.47;;
291;SDS011;23311;48.776;9.162;2023-04-10T07:49:24;6.57;;;6.17;;
291;SDS011;23311;48.776;9.162;2023-04-10T07:51:52;5.80;;;5.13;;
291;SDS011;23311;48.776;9.162;2023-04-10T07:54:20;6.87;;;5.37;;
291;SDS011;23311;48.776;9.162;2023-04-10T07:56:50;5.67;;;5.20;;
291;SDS011;23311;48.776;9.162;2023-04-10T07:59:18;5.33;;;4.80;;
291;SDS011;23311;48.776;9.162;2023-04-10T08:01:46;5.60;;;4.80;;
291;SDS011;23311;48.776;9.162;2023-04-10T08:04:16;5.07;;;4.77;;
291;SDS011;23311;48.776;9.162;2023-04-10T08:06:44;5.10;;;4.80;;
291;SDS011;23311;48.776;9.162;2023-04-10T08:09:14;4.40;;;4.10;;
291;SDS011;23311;48.776;9.162;2023-04-10T08:11:42;5.97;;;4.83;;
291;SDS011;23311;48.776;9.162;2023-04-10T08:14:10;5.47;;;4.77;;
291;SDS011;23311;48.776;9.162;2023-04-10T08:16:43;4.60;;;4.30;;
291;SDS011;23311;48.776;9.162;2023-04-10T08:19:11;3.97;;;3.80;;
291;SDS011;23311;48.776;9.162;2023-04-10T08:21:41;5.93;;;5.30;;
291;SDS011;23311;48.776;9.162;2023-04-10T08:24:09;7.50;;;6.63;;
291;SDS011;23311;48.776;9.162;2023-04-10T08:26:37;5.27;;;5.03;;
291;SDS011;23311;48.776;9.162;2023-04-10T08:29:05;4.80;;;4.40;;
291;SDS011;23311;48.776;9.162;2023-04-10T08:31:33;5.23;;;4.33;;
291;SDS011;23311;48.776;9.162;2023-04-10T08:34:01;4.33;;;4.03;;
291;SDS011;23311;48.776;9.162;2023-04-10T08:36:30;5.50;;;4.63;;
291;SDS011;23311;48.776;9.162;2023-04-10T08:39:00;4.67;;;4.40;;
291;SDS011;23311;48.776;9.162;2023-04-10T08:41:28;4.63;;;3.80;;
291;SDS011;23311;48.776;9.162;2023-04-10T08:43:56;5.33;;;4.57;;
291;SDS011;23311;48.776;9.162;2023-04-10T08:46:24;4.43;;;4.20;;
291;SDS011;23311;48.776;9.162;2023-04-10T08:48:54;4.60;;;3.80;;
291;SDS011;23311;48.776;9.162;2023-04-10T08:51:30;3.83;;;3.63;;
291;SDS011;23311;48.776;9.162;2023-04-10T08:54:04;3.70;;;3.37;;
291;SDS011;23311;48.776;9.162;2023-04-10T08:56:34;3.37;;;3.20;;
291;SDS011;23311;48.776;9.162;2023-04-10T08:59:04;4.70;;;4.23;;
291;SDS011;23311;48.776;9.162;2023-04-10T09:01:33;3.50;;;3.33;;
291;SDS011;23311;48.776;9.162;2023-04-10T09:04:01;4.70;;;4.40;;
291;SDS011;23311;48.776;9.162;2023-04-10T09:06:30;4.33;;;4.03;;
291;SDS011;23311;48.776;9.162;2023-04-10T09:08:58;4.43;;;4.10;;
291;SDS011;23311;48.776;9.162;2023-04-10T09:14:27;4.53;;;4.27;;
291;SDS011;23311;48.776;9.162;2023-04-10T09:17:10;4.30;;;3.67;;
291;SDS011;23311;48.776;9.162;2023-04-10T09:19:40;4.70;;;3.93;;
291;SDS011;23311;48.776;9.162;2023-04-10T09:22:08;3.77;;;3.60;;
291;SDS011;23311;48.776;9.162;2023-04-10T09:24:37;6.43;;;3.60;;
291;SDS011;23311;48.776;9.162;2023-04-10T09:27:07;3.50;;;3.30;;
291;SDS011;23311;48.776;9.162;2023-04-10T09:29:42;4.50;;;3.80;;
291;SDS011;23311;48.776;9.162;2023-04-10T09:32:25;5.53;;;3.70;;
291;SDS011;23311;48.776;9.162;2023-04-10T09:35:03;3.50;;;3.20;;
291;SDS011;23311;48.776;9.162;2023-04-10T09:37:32;5.43;;;3.30;;
291;SDS011;23311;48.776;9.162;2023-04-10T09:40:01;3.67;;;3.47;;
291;SDS011;23311;48.776;9.162;2023-04-10T09:42:31;7.57;;;7.17;;
291;SDS011;23311;48.776;9.162;2023-04-10T09:45:02;4.00;;;3.03;;
291;SDS011;23311;48.776;9.162;2023-04-10T09:47:30;3.20;;;3.07;;
291;SDS011;23311;48.776;9.162;2023-04-10T09:49:59;3.13;;;2.97;;
291;SDS011;23311;48.776;9.162;2023-04-10T09:52:28;3.00;;;2.53;;
291;SDS011;23311;48.776;9.162;2023-04-10T09:54:58;3.40;;;2.97;;
291;SDS011;23311;48.776;9.162;2023-04-10T09:57:28;4.17;;;2.90;;
291;SDS011;23311;48.776;9.162;2023-04-10T09:59:59;2.73;;;2.53;;
291;SDS011;23311;48.776;9.162;2023-04-10T10:02:29;3.30;;;3.10;;
291;SDS011;23311;48.776;9.162;2023-04-10T10:04:59;2.90;;;2.70;;
291;SDS011;23311;48.776;9.162;2023-04-10T10:07:29;2.40;;;2.20;;
291;SDS011;23311;48.776;9.162;2023-04-10T10:09:58;3.53;;;3.10;;
291;SDS011;23311;48.776;9.162;2023-04-10T10:12:33;2.93;;;2.80;;
291;SDS011;23311;48.776;9.162;2023-04-10T10:15:03;3.63;;;3.43;;
291;SDS011;23311;48.776;9.162;2023-04-10T10:17:37;2.73;;;2.23;;
291;SDS011;23311;48.776;9.162;2023-04-10T10:20:10;2.50;;;2.30;;
291;SDS011;23311;48.776;9.162;2023-04-10T10:22:39;2.77;;;2.47;;
291;SDS011;23311;48.776;9.162;2023-04-10T10:25:08;2.63;;;2.10;;
291;SDS011;23311;48.776;9.162;2023-04-10T10:27:38;2.67;;;2.47;;
291;SDS011;23311;48.776;9.162;2023-04-10T10:30:08;2.80;;;2.30;;
291;SDS011;23311;48.776;9.162;2023-04-10T10:32:53;2.23;;;2.10;;
291;SDS011;23311;48.776;9.162;2023-04-10T10:35:23;2.73;;;2.20;;
291;SDS011;23311;48.776;9.162;2023-04-10T10:37:55;2.23;;;2.10;;
291;SDS011;23311;48.776;9.162;2023-04-10T10:40:27;1.90;;;1.33;;
291;SDS011;23311;48.776;9.162;2023-04-10T10:43:02;2.20;;;1.80;;
291;SDS011;23311;48.776;9.162;2023-04-10T10:45:36;3.87;;;2.47;;
291;SDS011;23311;48.776;9.162;2023-04-10T10:48:07;2.30;;;2.03;;
291;SDS011;23311;48.776;9.162;2023-04-10T10:50:52;2.40;;;2.20;;
291;SDS011;23311;48.776;9.162;2023-04-10T10:53:32;2.80;;;1.90;;
291;SDS011;23311;48.776;9.162;2023-04-10T10:59:03;2.37;;;2.20;;
291;SDS011;23311;48.776;9.162;2023-04-10T11:01:31;1.97;;;1.47;;
291;SDS011;23311;48.776;9.162;2023-04-10T11:03:59;2.20;;;1.70;;
291;SDS011;23311;48.776;9.162;2023-04-10T11:06:48;1.97;;;1.53;;
291;SDS011;23311;48.776;9.162;2023-04-10T11:12:12;1.80;;;1.40;;
291;SDS011;23311;48.776;9.162;2023-04-10T11:14:42;1.97;;;1.37;;
291;SDS011;23311;48.776;9.162;2023-04-10T11:20:16;1.57;;;1.20;;
291;SDS011;23311;48.776;9.162;2023-04-10T11:23:05;2.40;;;1.87;;
291;SDS011;23311;48.776;9.162;2023-04-10T11:25:45;2.13;;;1.53;;
291;SDS011;23311;48.776;9.162;2023-04-10T11:31:19;1.60;;;1.37;;
291;SDS011;23311;48.776;9.162;2023-04-10T11:33:49;1.90;;;1.50;;
291;SDS011;23311;48.776;9.162;2023-04-10T11:36:27;1.93;;;1.30;;
291;SDS011;23311;48.776;9.162;2023-04-10T11:38:56;2.20;;;1.67;;
291;SDS011;23311;48.776;9.162;2023-04-10T11:41:26;2.70;;;1.90;;
291;SDS011;23311;48.776;9.162;2023-04-10T11:43:56;1.90;;;1.07;;
291;SDS011;23311;48.776;9.162;2023-04-10T11:46:26;1.53;;;1.17;;
291;SDS011;23311;48.776;9.162;2023-04-10T11:48:57;1.50;;;1.07;;
291;SDS011;23311;48.776;9.162;2023-04-10T11:51:26;2.93;;;1.40;;
291;SDS011;23311;48.776;9.162;2023-04-10T11:54:05;2.57;;;1.40;;
291;SDS011;23311;48.776;9.162;2023-04-10T11:56:34;1.50;;;1.50;;
291;SDS011;23311;48.776;9.162;2023-04-10T11:59:02;2.10;;;1.30;;
291;SDS011;23311;48.776;9.162;2023-04-10T12:01:35;1.80;;;1.40;;
291;SDS011;23311;48.776;9.162;2023-04-10T12:04:12;2.27;;;1.30;;
291;SDS011;23311;48.776;9.162;2023-04-10T12:06:42;1.60;;;1.13;;
291;SDS011;23311;48.776;9.162;2023-04-10T12:09:12;1.40;;;1.03;;
291;SDS011;23311;48.776;9.162;2023-04-10T12:11:47;1.70;;;1.17;;
291;SDS011;23311;48.776;9.162;2023-04-10T12:14:17;1.70;;;1.00;;
291;SDS011;23311;48.776;9.162;2023-04-10T12:16:47;1.40;;;0.93;;
291;SDS011;23311;48.776;9.162;2023-04-10T12:19:16;1.80;;;0.93;;
291;SDS011;23311;48.776;9.162;2023-04-10T12:21:45;1.30;;;0.80;;
291;SDS011;23311;48.776;9.162;2023-04-10T12:24:19;1.33;;;0.83;;
291;SDS011;23311;48.776;9.162;2023-04-10T12:27:08;3.40;;;2.60;;
291;SDS011;23311;48.776;9.162;2023-04-10T12:29:42;1.23;;;0.77;;
291;SDS011;23311;48.776;9.162;2023-04-10T12:32:12;1.00;;;0.63;;
291;SDS011;23311;48.776;9.162;2023-04-10T12:34:40;0.97;;;0.50;;
291;SDS011;23311;48.776;9.162;2023-04-10T12:37:09;1.10;;;0.80;;
291;SDS011;23311;48.776;9.162;2023-04-10T12:39:37;1.23;;;0.60;;
291;SDS011;23311;48.776;9.162;2023-04-10T12:42:11;1.33;;;0.83;;
291;SDS011;23311;48.776;9.162;2023-04-10T12:44:50;1.10;;;0.70;;
291;SDS011;23311;48.776;9.162;2023-04-10T12:47:24;1.30;;;0.80;;
291;SDS011;23311;48.776;9.162;2023-04-10T12:50:04;2.40;;;1.00;;
291;SDS011;23311;48.776;9.162;2023-04-10T12:52:33;1.67;;;1.10;;
291;SDS011;23311;48.776;9.162;2023-04-10T12:55:08;1.27;;;0.83;;
291;SDS011;23311;48.776;9.162;2023-04-10T12:57:38;1.43;;;1.10;;
291;SDS011;23311;48.776;9.162;2023-04-10T13:00:07;1.33;;;0.87;;
291;SDS011;23311;48.776;9.162;2023-04-10T13:02:37;1.20;;;0.80;;
291;SDS011;23311;48.776;9.162;2023-04-10T13:05:07;1.53;;;1.10;;
291;SDS011;23311;48.776;9.162;2023-04-10T13:07:36;1.90;;;1.00;;
291;SDS011;23311;48.776;9.162;2023-04-10T13:10:05;1.60;;;0.77;;
291;SDS011;23311;48.776;9.162;2023-04-10T13:12:34;1.60;;;1.10;;
291;SDS011;23311;48.776;9.162;2023-04-10T13:15:04;1.73;;;1.07;;
291;SDS011;23311;48.776;9.162;2023-04-10T13:17:33;6.70;;;6.30;;
291;SDS011;23311;48.776;9.162;2023-04-10T13:20:03;3.13;;;2.70;;
291;SDS011;23311;48.776;9.162;2023-04-10T13:22:31;3.73;;;1.17;;
291;SDS011;23311;48.776;9.162;2023-04-10T13:24:59;2.43;;;1.17;;
291;SDS011;23311;48.776;9.162;2023-04-10T13:27:29;1.70;;;1.20;;
291;SDS011;23311;48.776;9.162;2023-04-10T13:29:57;1.60;;;1.00;;
291;SDS011;23311;48.776;9.162;2023-04-10T13:32:25;1.73;;;1.20;;
291;SDS011;23311;48.776;9.162;2023-04-10T13:34:53;1.87;;;1.10;;
291;SDS011;23311;48.776;9.162;2023-04-10T13:37:23;1.77;;;1.37;;
291;SDS011;23311;48.776;9.162;2023-04-10T13:39:52;1.80;;;1.53;;
291;SDS011;23311;48.776;9.162;2023-04-10T13:42:20;2.80;;;1.53;;
291;SDS011;23311;48.776;9.162;2023-04-10T13:44:48;2.40;;;1.40;;
291;SDS011;23311;48.776;9.162;2023-04-10T13:47:16;1.60;;;1.13;;
291;SDS011;23311;48.776;9.162;2023-04-10T13:49:44;2.00;;;1.30;;
291;SDS011;23311;48.776;9.162;2023-04-10T13:52:12;2.17;;;1.60;;
291;SDS011;23311;48.776;9.162;2023-04-10T13:54:42;1.97;;;1.20;;
291;SDS011;23311;48.776;9.162;2023-04-10T13:57:10;2.20;;;1.63;;
291;SDS011;23311;48.776;9.162;2023-04-10T13:59:38;2.30;;;1.53;;
291;SDS011;23311;48.776;9.162;2023-04-10T14:02:06;1.80;;;1.60;;
291;SDS011;23311;48.776;9.162;2023-04-10T14:04:35;2.03;;;1.30;;
291;SDS011;23311;48.776;9.162;2023-04-10T14:07:03;1.97;;;1.40;;
291;SDS011;23311;48.776;9.162;2023-04-10T14:09:31;2.30;;;1.50;;
291;SDS011;23311;48.776;9.162;2023-04-10T14:12:00;1.93;;;1.47;;
291;SDS011;23311;48.776;9.162;2023-04-10T14:14:28;1.70;;;0.93;;
291;SDS011;23311;48.776;9.162;2023-04-10T14:16:57;1.70;;;1.20;;
291;SDS011;23311;48.776;9.162;2023-04-10T14:19:25;3.40;;;3.20;;
291;SDS011;23311;48.776;9.162;2023-04-10T14:21:53;3.10;;;2.73;;
291;SDS011;23311;48.776;9.162;2023-04-10T14:24:21;2.30;;;2.00;;
291;SDS011;23311;48.776;9.162;2023-04-10T14:26:49;2.00;;;1.30;;
291;SDS011;23311;48.776;9.162;2023-04-10T14:29:24;2.87;;;2.53;;
291;SDS011;23311;48.776;9.162;2023-04-10T14:32:06;2.10;;;1.20;;
291;SDS011;23311;48.776;9.162;2023-04-10T14:34:34;2.00;;;1.40;;
291;SDS011;23311;48.776;9.162;2023-04-10T14:37:02;1.83;;;1.33;;
291;SDS011;23311;48.776;9.162;2023-04-10T14:39:30;2.23;;;1.63;;
291;SDS011;23311;48.776;9.162;2023-04-10T14:41:59;2.13;;;1.67;;
291;SDS011;23311;48.776;9.162;2023-04-10T14:44:29;2.20;;;1.40;;
291;SDS011;23311;48.776;9.162;2023-04-10T14:46:58;2.20;;;1.80;;
291;SDS011;23311;48.776;9.162;2023-04-10T14:49:26;2.53;;;1.80;;
291;SDS011;23311;48.776;9.162;2023-04-10T14:51:54;2.17;;;1.63;;
291;SDS011;23311;48.776;9.162;2023-04-10T14:54:22;2.23;;;1.00;;
291;SDS011;23311;48.776;9.162;2023-04-10T14:56:50;3.00;;;2.80;;
291;SDS011;23311;48.776;9.162;2023-04-10T14:59:18;3.27;;;2.37;;
291;SDS011;23311;48.776;9.162;2023-04-10T15:01:47;2.00;;;1.43;;
291;SDS011;23311;48.776;9.162;2023-04-10T15:04:15;2.43;;;2.13;;
291;SDS011;23311;48.776;9.162;2023-04-10T15:06:43;1.60;;;1.07;;
291;SDS011;23311;48.776;9.162;2023-04-10T15:09:12;2.50;;;1.33;;
291;SDS011;23311;48.776;9.162;2023-04-10T15:11:40;1.77;;;1.20;;
291;SDS011;23311;48.776;9.162;2023-04-10T15:14:08;1.80;;;1.50;;
291;SDS011;23311;48.776;9.162;2023-04-10T15:16:37;2.10;;;1.80;;
291;SDS011;23311;48.776;9.162;2023-04-10T15:19:06;2.83;;;1.50;;
291;SDS011;23311;48.776;9.162;2023-04-10T15:21:34;2.10;;;1.40;;
291;SDS011;23311;48.776;9.162;2023-04-10T15:24:02;2.47;;;1.80;;
291;SDS011;23311;48.776;9.162;2023-04-10T15:26:31;2.10;;;1.70;;
291;SDS011;23311;48.776;9.162;2023-04-10T15:28:59;2.13;;;1.47;;
291;SDS011;23311;48.776;9.162;2023-04-10T15:31:27;1.87;;;1.57;;
291;SDS011;23311;48.776;9.162;2023-04-10T15:33:55;2.90;;;1.67;;
291;SDS011;23311;48.776;9.162;2023-04-10T15:36:24;2.00;;;1.20;;
291;SDS011;23311;48.776;9.162;2023-04-10T15:38:53;2.07;;;1.93;;